Flight Track Log - Related Links

Times and Time Zones

All times are in EDT time to prevent confusion due to time zone crossing. See the AWE1578 flight status page for this flight to view local times or setup timezone preferences in your user account.

Time Position Orientation Groundspeed Altitude Reporting Facility
EDT Latitude Longitude Course Direction KTS MPH feet Rate Location/Type
Thu 03:02:32 PM 35.2389 -80.9414 30° Northeast 179 206 1,900  Level Atlanta Center
Thu 03:03:52 PM 35.3047 -80.9033 25° Northeast 233 268 4,900 2,171 Climbing Atlanta Center
Thu 03:04:17 PM 35.3100 -80.8625 81° East 277 319 5,700 2,754 Climbing Atlanta Center
Thu 03:04:53 PM 35.2983 -80.8119 106° East 291 335 7,700 2,200 Climbing Atlanta Center
Thu 03:05:00 PM 35.1126 -80.6250 29° Northeast  Level FlightAware Approximate
Thu 03:05:17 PM 35.2989 -80.7636 89° East 289 333 7,900  Level Atlanta Center
Thu 03:05:54 PM 35.2914 -80.7156 101° East 299 344 8,000 100 Climbing Atlanta Center
Thu 03:06:00 PM 35.2093 -80.5601 30° Northeast  Level FlightAware Approximate
Thu 03:06:17 PM 35.2903 -80.6750 92° East 316 364 8,000  Level Atlanta Center
Thu 03:07:00 PM 35.3046 -80.4920 30° Northeast  Level FlightAware Approximate
Thu 03:07:18 PM 35.3106 -80.5775 76° East 316 364 10,300  Level Atlanta Center
Thu 03:09:38 PM 35.3925 -80.2750 72° East 397 457 16,200 2,479 Climbing Washington Center
Thu 03:15:39 PM 35.6230 -79.2600 72° East 544 626 31,000 2,135 Climbing FlightAware ADS-B
Thu 03:16:34 PM 35.6540 -79.1030 76° East 531 611 31,000  Level FlightAware ADS-B
Thu 03:17:34 PM 35.7400 -78.9570 54° Northeast 513 590 31,000  Level FlightAware ADS-B
Thu 03:18:14 PM 35.8110 -78.8790 42° Northeast 518 596 31,000  Level FlightAware ADS-B
Thu 03:18:54 PM 35.8810 -78.8020 42° Northeast 520 598 31,000  Level FlightAware ADS-B
Thu 03:19:39 PM 35.9630 -78.7120 42° Northeast 519 597 31,000  Level FlightAware ADS-B
Thu 03:20:19 PM 36.0340 -78.6340 42° Northeast 519 597 31,000  Level FlightAware ADS-B
Thu 03:21:04 PM 36.1180 -78.5420 41° Northeast 518 596 31,000  Level FlightAware ADS-B
Thu 03:21:44 PM 36.1850 -78.4680 42° Northeast 519 597 31,000  Level FlightAware ADS-B
Thu 03:22:39 PM 36.2860 -78.3580 41° Northeast 521 600 31,000  Level FlightAware ADS-B
Thu 03:23:24 PM 36.3610 -78.2760 41° Northeast 524 603 31,000  Level FlightAware ADS-B
Thu 03:24:04 PM 36.4410 -78.1890 41° Northeast 525 604 31,000  Level FlightAware ADS-B
Thu 03:24:44 PM 36.5130 -78.1110 41° Northeast 526 605 31,000  Level FlightAware ADS-B
Thu 03:25:44 PM 36.6250 -77.9900 41° Northeast 527 606 31,000  Level FlightAware ADS-B
Thu 03:26:19 PM 36.6900 -77.9180 42° Northeast 528 608 31,000  Level FlightAware ADS-B
Thu 03:27:04 PM 36.7620 -77.8400 41° Northeast 528 608 31,000  Level FlightAware ADS-B
Thu 03:27:44 PM 36.8250 -77.7720 41° Northeast 528 608 31,000  Level FlightAware ADS-B
Thu 03:28:24 PM 36.8870 -77.7040 41° Northeast 528 608 31,000  Level FlightAware ADS-B
Thu 03:29:29 PM 37.0330 -77.5500 40° Northeast 532 612 31,000  Level FlightAware ADS-B
Thu 03:30:09 PM 37.1200 -77.4740 35° Northeast 31,000  Level FlightAware ADS-B
Thu 03:30:44 PM 37.1910 -77.4320 25° Northeast 501 577 31,000  Level FlightAware ADS-B
Thu 03:31:24 PM 37.2760 -77.3940 20° North 510 587 31,000  Level FlightAware ADS-B
Thu 03:32:14 PM 37.3950 -77.3410 19° North 512 589 31,000  Level FlightAware ADS-B
Thu 03:32:54 PM 37.4830 -77.3010 20° North 513 590 31,000  Level FlightAware ADS-B
Thu 03:33:39 PM 37.5860 -77.2540 20° North 513 590 31,000  Level FlightAware ADS-B
Thu 03:34:19 PM 37.6700 -77.2160 20° North 514 592 31,000  Level FlightAware ADS-B
Thu 03:35:04 PM 37.7750 -77.1690 19° North 515 593 31,000  Level FlightAware ADS-B
Thu 03:35:17 PM 37.8115 -77.1530 19° North 31,000  Level FlightAware ADS-B
Thu 03:35:32 PM 37.8457 -77.1379 19° North 515 593 31,000  Level FlightAware ADS-B
Thu 03:36:08 PM 37.9255 -77.1028 19° North 516 594 31,000  Level FlightAware ADS-B
Thu 03:36:45 PM 38.0082 -77.0657 19° North 516 594 31,000 -261 Level FlightAware ADS-B
Thu 03:37:17 PM 38.0807 -77.0329 20° North 512 589 30,700 -750 Descending FlightAware ADS-B
Thu 03:37:49 PM 38.1460 -77.0040 19° North 510 587 30,200 -1,000 Descending FlightAware ADS-B
Thu 03:38:35 PM 38.2547 -76.9533 20° North 508 585 29,400 -1,011 Descending FlightAware ADS-B
Thu 03:39:18 PM 38.3490 -76.9096 20° North 502 578 28,700 -963 Descending FlightAware ADS-B
Thu 03:39:56 PM 38.4304 -76.8722 20° North 499 574 28,100 -935 Descending FlightAware ADS-B
Thu 03:40:35 PM 38.5134 -76.8338 20° North 493 567 27,500 -2,137 Descending FlightAware ADS-B
Thu 03:41:09 PM 38.5877 -76.7994 20° North 498 573 25,500 -2,292 Descending FlightAware ADS-B
Thu 03:42:04 PM 38.6950 -76.7190 30° Northeast 526 605 24,100 -1,151 Descending FlightAware ADS-B
Thu 03:42:22 PM 38.7203 -76.6643 59° Northeast 536 617 24,100 -107 Level FlightAware ADS-B
Thu 03:43:00 PM 38.7464 -76.5485 74° East 534 615 24,000 -257 Descending FlightAware ADS-B
Thu 03:43:32 PM 38.7668 -76.4503 75° East 528 608 23,800 -1,477 Descending FlightAware ADS-B
Thu 03:44:05 PM 38.7867 -76.3512 76° East 523 602 22,400 -2,531 Descending FlightAware ADS-B
Thu 03:44:36 PM 38.8049 -76.2599 76° East 513 590 21,100 -2,783 Descending FlightAware ADS-B
Thu 03:45:14 PM 38.8271 -76.1495 75° East 513 590 19,200 -2,833 Descending FlightAware ADS-B
Thu 03:45:48 PM 38.8459 -76.0536 76° East 491 565 17,700 -2,636 Descending FlightAware ADS-B
Thu 03:46:20 PM 38.8641 -75.9636 75° East 474 545 16,300 -2,476 Descending FlightAware ADS-B
Thu 03:46:51 PM 38.8823 -75.8812 74° East 461 531 15,100 -1,837 Descending FlightAware ADS-B
Thu 03:47:09 PM 38.9000 -75.8404 61° Northeast 441 507 14,800 -409 Descending FlightAware ADS-B
Thu 03:47:35 PM 38.9357 -75.7923 46° Northeast 431 496 14,800 -964 Level FlightAware ADS-B
Thu 03:48:05 PM 38.9845 -75.7452 37° Northeast 429 494 13,900 -1,900 Descending FlightAware ADS-B
Thu 03:48:35 PM 39.0319 -75.7013 36° Northeast 415 478 12,900 -1,920 Descending FlightAware ADS-B
Thu 03:48:55 PM 39.0655 -75.6814 25° Northeast 391 450 12,300 -1,950 Descending FlightAware ADS-B
Thu 03:49:15 PM 39.0988 -75.6720 12° North 374 430 11,600 -2,118 Descending FlightAware ADS-B
Thu 03:49:46 PM 39.1512 -75.6661 North 356 410 10,500 -1,714 Descending FlightAware ADS-B
Thu 03:50:11 PM 39.1917 -75.6620 North 339 390 10,000 -1,050 Descending FlightAware ADS-B
Thu 03:50:26 PM 39.2154 -75.6594 North 329 379 9,800 -581 Descending FlightAware ADS-B
Thu 03:50:42 PM 39.2387 -75.6570 North 308 354 9,700 -182 Descending FlightAware ADS-B
Thu 03:50:59 PM 39.2612 -75.6548 North 290 334 9,700 261 Level FlightAware ADS-B
Thu 03:51:05 PM 39.2699 -75.6532 North 287 330 9,800 462 Climbing FlightAware ADS-B
Thu 03:51:12 PM 39.2792 -75.6502 14° North 289 333 9,800  Level FlightAware ADS-B
Thu 03:51:22 PM 39.2907 -75.6443 22° Northeast 290 334 9,800  Level FlightAware ADS-B
Thu 03:51:31 PM 39.3012 -75.6362 31° Northeast 293 337 9,800 -462 Level FlightAware ADS-B
Thu 03:51:48 PM 39.3203 -75.6198 34° Northeast 291 335 9,600 -909 Descending FlightAware ADS-B
Thu 03:52:04 PM 39.3391 -75.6036 34° Northeast 289 333 9,300 -1,313 Descending FlightAware ADS-B
Thu 03:52:20 PM 39.3558 -75.5887 35° Northeast 288 331 8,900 -1,448 Descending FlightAware ADS-B
Thu 03:52:33 PM 39.3698 -75.5757 36° Northeast 287 330 8,600 -1,500 Descending FlightAware ADS-B
Thu 03:52:36 PM 39.3731 -75.5722 39° Northeast 288 331 8,500 -2,000 Descending FlightAware ADS-B
Thu 03:52:39 PM 39.3764 -75.5683 42° Northeast 289 333 8,400 -1,500 Descending FlightAware ADS-B
Thu 03:52:44 PM 39.3803 -75.5626 48° Northeast 290 334 8,300 -1,091 Descending FlightAware ADS-B
Thu 03:52:50 PM 39.3853 -75.5535 55° Northeast 291 335 8,200 -1,500 Descending FlightAware ADS-B
Thu 03:52:56 PM 39.3891 -75.5451 60° Northeast 292 336 8,000 -1,714 Descending FlightAware ADS-B
Thu 03:53:04 PM 39.3930 -75.5326 68° East 291 335 7,800 -1,250 Descending FlightAware ADS-B
Thu 03:53:20 PM 39.4006 -75.5065 69° East 290 334 7,500 -1,355 Descending FlightAware ADS-B
Thu 03:53:35 PM 39.4081 -75.4817 69° East 289 333 7,100 -1,235 Descending FlightAware ADS-B
Thu 03:53:54 PM 39.4169 -75.4519 69° East 285 328 6,800 -529 Descending FlightAware ADS-B
Thu 03:54:09 PM 39.4243 -75.4277 68° East 286 329 6,800  Level FlightAware ADS-B
Thu 03:54:25 PM 39.4320 -75.4021 69° East 287 330 6,800 -194 Level FlightAware ADS-B
Thu 03:54:40 PM 39.4392 -75.3781 69° East 288 331 6,700 -600 Descending FlightAware ADS-B
Thu 03:54:55 PM 39.4467 -75.3533 69° East 289 333 6,500 -857 Descending FlightAware ADS-B
Thu 03:55:15 PM 39.4570 -75.3230 66° East 289 333 6,200 -696 Descending FlightAware ADS-B
Thu 03:56:04 PM 39.4980 -75.2650 47° Northeast 270 311 5,700 -393 Descending FlightAware ADS-B
Thu 03:56:16 PM 39.5118 -75.2483 43° Northeast 275 316 5,800 214 Climbing FlightAware ADS-B
Thu 03:56:32 PM 39.5268 -75.2303 43° Northeast 276 318 5,800  Level FlightAware ADS-B
Thu 03:56:42 PM 39.5365 -75.2196 40° Northeast 277 319 5,800  Level FlightAware ADS-B
Thu 03:56:46 PM 39.5400 -75.2163 36° Northeast 275 316 5,800  Level FlightAware ADS-B
Thu 03:56:52 PM 39.5468 -75.2107 32° Northeast 274 315 5,800  Level FlightAware ADS-B
Thu 03:56:56 PM 39.5506 -75.2079 30° Northeast 273 314 5,800  Level FlightAware ADS-B
Thu 03:57:02 PM 39.5578 -75.2033 26° Northeast 273 314 5,800  Level FlightAware ADS-B
Thu 03:57:09 PM 39.5666 -75.1987 22° Northeast 272 313 5,800  Level FlightAware ADS-B
Thu 03:57:23 PM 39.5823 -75.1912 20° North 274 315 5,800  Level FlightAware ADS-B
Thu 03:57:39 PM 39.6012 -75.1820 21° North 272 313 5,800  Level FlightAware ADS-B
Thu 03:58:10 PM 39.6385 -75.1642 20° North 272 313 5,800  Level FlightAware ADS-B
Thu 03:58:27 PM 39.6579 -75.1551 20° North 270 311 5,800  Level FlightAware ADS-B
Thu 03:58:42 PM 39.6764 -75.1465 20° North 271 312 5,800  Level FlightAware ADS-B
Thu 03:58:58 PM 39.6944 -75.1382 20° North 274 315 5,800  Level FlightAware ADS-B
Thu 03:59:16 PM 39.7168 -75.1280 19° North 273 314 5,800 -176 Level FlightAware ADS-B
Thu 03:59:32 PM 39.7336 -75.1160 29° Northeast 273 314 5,700  Descending FlightAware ADS-B
Thu 03:59:47 PM 39.7472 -75.0991 44° Northeast 257 296 5,800  Climbing FlightAware ADS-B
Thu 04:00:02 PM 39.7595 -75.0837 44° Northeast 241 277 5,700  Descending FlightAware ADS-B
Thu 04:00:41 PM 39.7885 -75.0480 43° Northeast 216 249 5,800 -429 Climbing FlightAware ADS-B
Thu 04:01:26 PM 39.8218 -75.0165 36° Northeast 209 241 5,100 -1,000 Descending FlightAware ADS-B
Thu 04:01:29 PM 39.8244 -75.0165 360° North 177 204 5,000 -1,714 Descending FlightAware ADS-B
Thu 04:01:33 PM 39.8278 -75.0171 352° North 175 201 4,900 -1,714 Descending FlightAware ADS-B
Thu 04:01:36 PM 39.8304 -75.0174 355° North 174 200 4,800 -1,600 Descending FlightAware ADS-B
Thu 04:01:48 PM 39.8395 -75.0195 350° North 176 203 4,500 -1,895 Descending FlightAware ADS-B
Thu 04:01:55 PM 39.8457 -75.0209 350° North 176 203 4,200 -2,500 Descending FlightAware ADS-B
Thu 04:02:00 PM 39.8495 -75.0220 347° North 176 203 4,000 -2,250 Descending FlightAware ADS-B
Thu 04:02:03 PM 39.8520 -75.0234 337° Northwest 177 204 3,900 -2,000 Descending FlightAware ADS-B
Thu 04:02:12 PM 39.8584 -75.0275 334° Northwest 179 206 3,600 -2,000 Descending FlightAware ADS-B
Thu 04:02:21 PM 39.8651 -75.0322 332° Northwest 179 206 3,300 -2,000 Descending FlightAware ADS-B
Thu 04:02:24 PM 39.8671 -75.0339 327° Northwest 179 206 3,200 -2,000 Descending FlightAware ADS-B
Thu 04:02:30 PM 39.8707 -75.0375 322° Northwest 179 206 3,000 -2,000 Descending FlightAware ADS-B
Thu 04:02:45 PM 39.8795 -75.0495 314° West 180 207 2,500 -2,000 Descending FlightAware ADS-B
Thu 04:02:54 PM 39.8845 -75.0569 311° West 182 209 2,200 -1,565 Descending FlightAware ADS-B
Thu 04:03:08 PM 39.8922 -75.0684 311° West 181 208 1,900 -1,263 Descending FlightAware ADS-B
Thu 04:03:13 PM 39.8949 -75.0725 311° West 179 206 1,800 -667 Descending FlightAware ADS-B
Thu 04:03:17 PM 39.8967 -75.0761 303° West 178 205 1,800 -750 Level FlightAware ADS-B
Thu 04:03:21 PM 39.8979 -75.0801 291° West 177 204 1,700 -857 Descending FlightAware ADS-B
Thu 04:03:24 PM 39.8986 -75.0833 286° West 177 204 1,700 750 Level FlightAware ADS-B
Thu 04:03:29 PM 39.8984 -75.0888 267° West 177 204 1,800  Climbing FlightAware ADS-B
Thu 04:03:43 PM 39.8960 -75.1021 257° West 162 186 1,700 -286 Descending FlightAware ADS-B
Thu 04:03:50 PM 39.8948 -75.1093 258° West 154 177 1,700 -783 Level FlightAware ADS-B
Thu 04:04:06 PM 39.8926 -75.1230 258° West 152 175 1,400 -800 Descending FlightAware ADS-B
Thu 04:04:20 PM 39.8901 -75.1348 255° West 138 159 1,300 -545 Descending FlightAware ADS-B
Thu 04:04:28 PM 39.8888 -75.1410 255° West 131 151 1,200 -800 Descending FlightAware ADS-B
Thu 04:04:35 PM 39.8877 -75.1469 256° West 130 150 1,100 -667 Descending FlightAware ADS-B
Thu 04:04:46 PM 39.8862 -75.1553 257° West 133 153 1,000 -857 Descending FlightAware ADS-B
Thu 04:05:03 PM 39.8834 -75.1688 255° West 131 151 700 -727 Descending FlightAware ADS-B
Thu 04:05:19 PM 39.8812 -75.1803 256° West 130 150 600 -600 Descending FlightAware ADS-B
Thu 04:05:33 PM 39.8792 -75.1916 257° West 132 152 400 -857 Descending FlightAware ADS-B

Login

Don't have an account? Register now (free) for customized features, flight alerts, and more!